sensor_id;sensor_type;location;lat;lon;timestamp;P1;durP1;ratioP1;P2;durP2;ratioP2
35418;SDS011;21525;41.240;16.500;2024-01-15T00:01:55;9.75;;;3.78;;
35418;SDS011;21525;41.240;16.500;2024-01-15T00:04:21;4.97;;;3.10;;
35418;SDS011;21525;41.240;16.500;2024-01-15T00:06:49;8.10;;;3.63;;
35418;SDS011;21525;41.240;16.500;2024-01-15T00:09:15;6.30;;;3.57;;
35418;SDS011;21525;41.240;16.500;2024-01-15T00:11:42;7.20;;;3.72;;
35418;SDS011;21525;41.240;16.500;2024-01-15T00:14:08;10.95;;;3.80;;
35418;SDS011;21525;41.240;16.500;2024-01-15T00:16:34;7.60;;;3.22;;
35418;SDS011;21525;41.240;16.500;2024-01-15T00:19:00;9.40;;;2.90;;
35418;SDS011;21525;41.240;16.500;2024-01-15T00:21:26;5.03;;;2.30;;
35418;SDS011;21525;41.240;16.500;2024-01-15T00:23:53;4.75;;;2.38;;
35418;SDS011;21525;41.240;16.500;2024-01-15T00:26:19;4.35;;;2.30;;
35418;SDS011;21525;41.240;16.500;2024-01-15T00:28:44;5.85;;;2.53;;
35418;SDS011;21525;41.240;16.500;2024-01-15T00:31:10;9.73;;;4.07;;
35418;SDS011;21525;41.240;16.500;2024-01-15T00:33:36;7.93;;;3.90;;
35418;SDS011;21525;41.240;16.500;2024-01-15T00:36:02;8.82;;;3.90;;
35418;SDS011;21525;41.240;16.500;2024-01-15T00:38:28;11.18;;;4.15;;
35418;SDS011;21525;41.240;16.500;2024-01-15T00:40:54;7.45;;;4.30;;
35418;SDS011;21525;41.240;16.500;2024-01-15T00:43:20;9.55;;;3.70;;
35418;SDS011;21525;41.240;16.500;2024-01-15T00:45:46;5.30;;;2.42;;
35418;SDS011;21525;41.240;16.500;2024-01-15T00:48:12;5.55;;;2.53;;
35418;SDS011;21525;41.240;16.500;2024-01-15T00:50:37;3.92;;;2.20;;
35418;SDS011;21525;41.240;16.500;2024-01-15T00:53:03;5.18;;;2.10;;
35418;SDS011;21525;41.240;16.500;2024-01-15T00:55:29;4.90;;;2.10;;
35418;SDS011;21525;41.240;16.500;2024-01-15T00:57:55;10.00;;;2.83;;
35418;SDS011;21525;41.240;16.500;2024-01-15T01:00:21;6.38;;;2.72;;
35418;SDS011;21525;41.240;16.500;2024-01-15T01:02:47;6.97;;;2.60;;
35418;SDS011;21525;41.240;16.500;2024-01-15T01:05:13;6.68;;;2.38;;
35418;SDS011;21525;41.240;16.500;2024-01-15T01:07:38;5.60;;;2.42;;
35418;SDS011;21525;41.240;16.500;2024-01-15T01:10:04;4.15;;;2.03;;
35418;SDS011;21525;41.240;16.500;2024-01-15T01:12:30;4.88;;;2.20;;
35418;SDS011;21525;41.240;16.500;2024-01-15T01:14:56;5.60;;;2.20;;
35418;SDS011;21525;41.240;16.500;2024-01-15T01:17:22;4.25;;;2.60;;
35418;SDS011;21525;41.240;16.500;2024-01-15T01:19:49;5.78;;;2.13;;
35418;SDS011;21525;41.240;16.500;2024-01-15T01:22:15;8.70;;;2.75;;
35418;SDS011;21525;41.240;16.500;2024-01-15T01:24:40;3.85;;;1.75;;
35418;SDS011;21525;41.240;16.500;2024-01-15T01:27:06;3.85;;;1.60;;
35418;SDS011;21525;41.240;16.500;2024-01-15T01:29:32;3.40;;;1.60;;
35418;SDS011;21525;41.240;16.500;2024-01-15T01:31:58;4.40;;;1.92;;
35418;SDS011;21525;41.240;16.500;2024-01-15T01:34:24;3.20;;;2.10;;
35418;SDS011;21525;41.240;16.500;2024-01-15T01:36:49;3.33;;;1.70;;
35418;SDS011;21525;41.240;16.500;2024-01-15T01:39:15;5.07;;;1.65;;
35418;SDS011;21525;41.240;16.500;2024-01-15T01:41:41;6.70;;;1.55;;
35418;SDS011;21525;41.240;16.500;2024-01-15T01:44:07;4.78;;;2.08;;
35418;SDS011;21525;41.240;16.500;2024-01-15T01:46:32;2.03;;;1.50;;
35418;SDS011;21525;41.240;16.500;2024-01-15T01:49:00;4.88;;;2.10;;
35418;SDS011;21525;41.240;16.500;2024-01-15T01:51:30;5.85;;;1.95;;
35418;SDS011;21525;41.240;16.500;2024-01-15T01:53:57;3.88;;;1.80;;
35418;SDS011;21525;41.240;16.500;2024-01-15T01:56:23;5.50;;;2.22;;
35418;SDS011;21525;41.240;16.500;2024-01-15T01:58:49;5.78;;;2.13;;
35418;SDS011;21525;41.240;16.500;2024-01-15T02:01:15;3.65;;;1.90;;
35418;SDS011;21525;41.240;16.500;2024-01-15T02:03:43;3.40;;;1.70;;
35418;SDS011;21525;41.240;16.500;2024-01-15T02:06:09;4.25;;;1.52;;
35418;SDS011;21525;41.240;16.500;2024-01-15T02:08:34;5.70;;;1.83;;
35418;SDS011;21525;41.240;16.500;2024-01-15T02:11:00;3.72;;;1.98;;
35418;SDS011;21525;41.240;16.500;2024-01-15T02:13:26;2.92;;;1.55;;
35418;SDS011;21525;41.240;16.500;2024-01-15T02:15:52;4.55;;;1.75;;
35418;SDS011;21525;41.240;16.500;2024-01-15T02:18:17;3.55;;;1.50;;
35418;SDS011;21525;41.240;16.500;2024-01-15T02:20:43;3.45;;;1.58;;
35418;SDS011;21525;41.240;16.500;2024-01-15T02:25:42;2.75;;;1.27;;
35418;SDS011;21525;41.240;16.500;2024-01-15T02:28:13;4.97;;;1.50;;
35418;SDS011;21525;41.240;16.500;2024-01-15T02:30:41;4.07;;;1.13;;
35418;SDS011;21525;41.240;16.500;2024-01-15T02:33:08;9.35;;;2.53;;
35418;SDS011;21525;41.240;16.500;2024-01-15T02:35:34;2.78;;;1.48;;
35418;SDS011;21525;41.240;16.500;2024-01-15T02:38:04;5.47;;;1.63;;
35418;SDS011;21525;41.240;16.500;2024-01-15T02:40:30;2.92;;;1.45;;
35418;SDS011;21525;41.240;16.500;2024-01-15T02:42:56;2.58;;;1.50;;
35418;SDS011;21525;41.240;16.500;2024-01-15T02:45:22;4.03;;;1.23;;
35418;SDS011;21525;41.240;16.500;2024-01-15T02:47:48;1.65;;;1.17;;
35418;SDS011;21525;41.240;16.500;2024-01-15T02:50:14;3.67;;;1.75;;
35418;SDS011;21525;41.240;16.500;2024-01-15T02:52:43;1.77;;;1.15;;
35418;SDS011;21525;41.240;16.500;2024-01-15T02:55:10;2.42;;;1.27;;
35418;SDS011;21525;41.240;16.500;2024-01-15T02:57:36;3.45;;;1.48;;
35418;SDS011;21525;41.240;16.500;2024-01-15T03:00:01;2.45;;;1.20;;
35418;SDS011;21525;41.240;16.500;2024-01-15T03:02:29;3.45;;;1.50;;
35418;SDS011;21525;41.240;16.500;2024-01-15T03:04:57;2.83;;;1.00;;
35418;SDS011;21525;41.240;16.500;2024-01-15T03:07:22;3.70;;;1.30;;
35418;SDS011;21525;41.240;16.500;2024-01-15T03:09:48;2.63;;;1.30;;
35418;SDS011;21525;41.240;16.500;2024-01-15T03:12:15;2.33;;;1.13;;
35418;SDS011;21525;41.240;16.500;2024-01-15T03:14:41;3.63;;;1.50;;
35418;SDS011;21525;41.240;16.500;2024-01-15T03:17:06;3.10;;;1.70;;
35418;SDS011;21525;41.240;16.500;2024-01-15T03:19:34;4.43;;;1.30;;
35418;SDS011;21525;41.240;16.500;2024-01-15T03:22:01;5.13;;;1.50;;
35418;SDS011;21525;41.240;16.500;2024-01-15T03:24:28;5.82;;;1.75;;
35418;SDS011;21525;41.240;16.500;2024-01-15T03:26:53;2.35;;;1.38;;
35418;SDS011;21525;41.240;16.500;2024-01-15T03:29:19;3.65;;;1.02;;
35418;SDS011;21525;41.240;16.500;2024-01-15T03:31:45;2.20;;;1.30;;
35418;SDS011;21525;41.240;16.500;2024-01-15T03:34:10;4.82;;;1.42;;
35418;SDS011;21525;41.240;16.500;2024-01-15T03:36:36;3.58;;;1.52;;
35418;SDS011;21525;41.240;16.500;2024-01-15T03:39:02;5.28;;;1.65;;
35418;SDS011;21525;41.240;16.500;2024-01-15T03:41:28;4.97;;;1.48;;
35418;SDS011;21525;41.240;16.500;2024-01-15T03:43:54;3.28;;;1.40;;
35418;SDS011;21525;41.240;16.500;2024-01-15T03:46:19;1.85;;;1.10;;
35418;SDS011;21525;41.240;16.500;2024-01-15T03:48:45;3.28;;;1.42;;
35418;SDS011;21525;41.240;16.500;2024-01-15T03:51:11;2.38;;;1.35;;
35418;SDS011;21525;41.240;16.500;2024-01-15T03:53:37;2.08;;;1.48;;
35418;SDS011;21525;41.240;16.500;2024-01-15T03:56:04;5.28;;;1.33;;
35418;SDS011;21525;41.240;16.500;2024-01-15T03:58:29;2.50;;;1.55;;
35418;SDS011;21525;41.240;16.500;2024-01-15T04:00:55;3.13;;;1.25;;
35418;SDS011;21525;41.240;16.500;2024-01-15T04:03:21;3.05;;;1.40;;
35418;SDS011;21525;41.240;16.500;2024-01-15T04:05:47;5.18;;;2.00;;
35418;SDS011;21525;41.240;16.500;2024-01-15T04:08:12;8.07;;;2.42;;
35418;SDS011;21525;41.240;16.500;2024-01-15T04:10:38;7.57;;;2.75;;
35418;SDS011;21525;41.240;16.500;2024-01-15T04:13:04;8.50;;;3.28;;
35418;SDS011;21525;41.240;16.500;2024-01-15T04:15:29;9.18;;;2.80;;
35418;SDS011;21525;41.240;16.500;2024-01-15T04:17:55;7.20;;;2.85;;
35418;SDS011;21525;41.240;16.500;2024-01-15T04:20:21;3.78;;;2.03;;
35418;SDS011;21525;41.240;16.500;2024-01-15T04:22:47;6.60;;;2.88;;
35418;SDS011;21525;41.240;16.500;2024-01-15T04:25:12;7.70;;;2.42;;
35418;SDS011;21525;41.240;16.500;2024-01-15T04:27:38;6.25;;;2.08;;
35418;SDS011;21525;41.240;16.500;2024-01-15T04:30:04;5.88;;;2.40;;
35418;SDS011;21525;41.240;16.500;2024-01-15T04:32:30;5.18;;;2.42;;
35418;SDS011;21525;41.240;16.500;2024-01-15T04:34:56;2.50;;;1.60;;
35418;SDS011;21525;41.240;16.500;2024-01-15T04:37:22;3.75;;;1.88;;
35418;SDS011;21525;41.240;16.500;2024-01-15T04:39:47;3.15;;;1.60;;
35418;SDS011;21525;41.240;16.500;2024-01-15T04:42:13;1.98;;;1.48;;
35418;SDS011;21525;41.240;16.500;2024-01-15T04:44:39;3.78;;;1.80;;
35418;SDS011;21525;41.240;16.500;2024-01-15T04:47:05;4.03;;;1.75;;
35418;SDS011;21525;41.240;16.500;2024-01-15T04:49:30;3.08;;;1.90;;
35418;SDS011;21525;41.240;16.500;2024-01-15T04:51:56;3.10;;;1.67;;
35418;SDS011;21525;41.240;16.500;2024-01-15T04:54:22;4.45;;;1.58;;
35418;SDS011;21525;41.240;16.500;2024-01-15T04:56:48;4.70;;;1.70;;
35418;SDS011;21525;41.240;16.500;2024-01-15T04:59:13;4.63;;;1.70;;
35418;SDS011;21525;41.240;16.500;2024-01-15T05:01:40;3.90;;;1.70;;
35418;SDS011;21525;41.240;16.500;2024-01-15T05:04:05;5.57;;;1.88;;
35418;SDS011;21525;41.240;16.500;2024-01-15T05:06:31;2.47;;;1.50;;
35418;SDS011;21525;41.240;16.500;2024-01-15T05:08:57;4.43;;;1.92;;
35418;SDS011;21525;41.240;16.500;2024-01-15T05:11:23;3.50;;;1.65;;
35418;SDS011;21525;41.240;16.500;2024-01-15T05:13:48;3.08;;;1.52;;
35418;SDS011;21525;41.240;16.500;2024-01-15T05:16:14;4.07;;;1.60;;
35418;SDS011;21525;41.240;16.500;2024-01-15T05:18:40;3.45;;;1.70;;
35418;SDS011;21525;41.240;16.500;2024-01-15T05:21:06;3.40;;;1.70;;
35418;SDS011;21525;41.240;16.500;2024-01-15T05:23:31;4.53;;;1.98;;
35418;SDS011;21525;41.240;16.500;2024-01-15T05:25:57;2.17;;;1.48;;
35418;SDS011;21525;41.240;16.500;2024-01-15T05:28:23;2.45;;;1.50;;
35418;SDS011;21525;41.240;16.500;2024-01-15T05:30:49;2.38;;;1.58;;
35418;SDS011;21525;41.240;16.500;2024-01-15T05:33:16;7.95;;;1.83;;
35418;SDS011;21525;41.240;16.500;2024-01-15T05:35:42;2.95;;;1.70;;
35418;SDS011;21525;41.240;16.500;2024-01-15T05:38:08;3.33;;;1.30;;
35418;SDS011;21525;41.240;16.500;2024-01-15T05:40:34;4.63;;;1.70;;
35418;SDS011;21525;41.240;16.500;2024-01-15T05:43:00;5.40;;;1.50;;
35418;SDS011;21525;41.240;16.500;2024-01-15T05:45:26;3.22;;;1.88;;
35418;SDS011;21525;41.240;16.500;2024-01-15T05:47:52;4.50;;;1.33;;
35418;SDS011;21525;41.240;16.500;2024-01-15T05:50:18;3.67;;;1.40;;
35418;SDS011;21525;41.240;16.500;2024-01-15T05:52:43;4.88;;;1.50;;
35418;SDS011;21525;41.240;16.500;2024-01-15T05:55:09;5.65;;;2.30;;
35418;SDS011;21525;41.240;16.500;2024-01-15T05:57:35;3.85;;;1.55;;
35418;SDS011;21525;41.240;16.500;2024-01-15T06:00:02;3.88;;;1.80;;
35418;SDS011;21525;41.240;16.500;2024-01-15T06:02:31;3.72;;;1.98;;
35418;SDS011;21525;41.240;16.500;2024-01-15T06:04:57;6.65;;;1.95;;
35418;SDS011;21525;41.240;16.500;2024-01-15T06:07:23;4.90;;;1.90;;
35418;SDS011;21525;41.240;16.500;2024-01-15T06:09:49;3.92;;;2.40;;
35418;SDS011;21525;41.240;16.500;2024-01-15T06:12:15;7.47;;;3.38;;
35418;SDS011;21525;41.240;16.500;2024-01-15T06:14:41;8.18;;;3.88;;
35418;SDS011;21525;41.240;16.500;2024-01-15T06:17:08;10.52;;;3.95;;
35418;SDS011;21525;41.240;16.500;2024-01-15T06:19:33;7.10;;;3.38;;
35418;SDS011;21525;41.240;16.500;2024-01-15T06:21:59;9.10;;;3.38;;
35418;SDS011;21525;41.240;16.500;2024-01-15T06:24:25;5.45;;;2.88;;
35418;SDS011;21525;41.240;16.500;2024-01-15T06:26:51;8.05;;;2.65;;
35418;SDS011;21525;41.240;16.500;2024-01-15T06:29:16;3.28;;;2.13;;
35418;SDS011;21525;41.240;16.500;2024-01-15T06:31:42;6.35;;;1.70;;
35418;SDS011;21525;41.240;16.500;2024-01-15T06:34:18;2.47;;;1.52;;
35418;SDS011;21525;41.240;16.500;2024-01-15T06:36:44;1.40;;;1.30;;
35418;SDS011;21525;41.240;16.500;2024-01-15T06:39:09;4.25;;;1.58;;
35418;SDS011;21525;41.240;16.500;2024-01-15T06:41:35;6.10;;;1.70;;
35418;SDS011;21525;41.240;16.500;2024-01-15T06:44:11;5.32;;;1.50;;
35418;SDS011;21525;41.240;16.500;2024-01-15T06:46:41;5.97;;;1.80;;
35418;SDS011;21525;41.240;16.500;2024-01-15T06:49:08;4.03;;;2.85;;
35418;SDS011;21525;41.240;16.500;2024-01-15T06:51:34;7.35;;;3.20;;
35418;SDS011;21525;41.240;16.500;2024-01-15T06:54:00;7.20;;;3.75;;
35418;SDS011;21525;41.240;16.500;2024-01-15T06:56:26;8.02;;;3.95;;
35418;SDS011;21525;41.240;16.500;2024-01-15T06:58:52;8.02;;;3.47;;
35418;SDS011;21525;41.240;16.500;2024-01-15T07:01:18;6.60;;;3.72;;
35418;SDS011;21525;41.240;16.500;2024-01-15T07:03:44;10.40;;;3.97;;
35418;SDS011;21525;41.240;16.500;2024-01-15T07:06:10;10.02;;;3.58;;
35418;SDS011;21525;41.240;16.500;2024-01-15T07:08:37;7.07;;;3.28;;
35418;SDS011;21525;41.240;16.500;2024-01-15T07:11:03;6.28;;;3.13;;
35418;SDS011;21525;41.240;16.500;2024-01-15T07:13:30;5.97;;;2.00;;
35418;SDS011;21525;41.240;16.500;2024-01-15T07:15:55;5.32;;;2.45;;
35418;SDS011;21525;41.240;16.500;2024-01-15T07:18:21;6.57;;;2.72;;
35418;SDS011;21525;41.240;16.500;2024-01-15T07:20:47;5.22;;;2.35;;
35418;SDS011;21525;41.240;16.500;2024-01-15T07:23:13;4.95;;;2.30;;
35418;SDS011;21525;41.240;16.500;2024-01-15T07:25:38;6.50;;;2.78;;
35418;SDS011;21525;41.240;16.500;2024-01-15T07:28:04;4.20;;;2.28;;
35418;SDS011;21525;41.240;16.500;2024-01-15T07:30:30;4.55;;;2.05;;
35418;SDS011;21525;41.240;16.500;2024-01-15T07:32:56;3.17;;;1.90;;
35418;SDS011;21525;41.240;16.500;2024-01-15T07:35:22;4.22;;;2.40;;
35418;SDS011;21525;41.240;16.500;2024-01-15T07:37:47;5.35;;;2.05;;
35418;SDS011;21525;41.240;16.500;2024-01-15T07:40:13;3.38;;;2.25;;
35418;SDS011;21525;41.240;16.500;2024-01-15T07:42:39;4.05;;;2.22;;
35418;SDS011;21525;41.240;16.500;2024-01-15T07:45:05;4.05;;;2.40;;
35418;SDS011;21525;41.240;16.500;2024-01-15T07:47:31;4.00;;;2.20;;
35418;SDS011;21525;41.240;16.500;2024-01-15T07:49:57;4.22;;;2.45;;
35418;SDS011;21525;41.240;16.500;2024-01-15T07:52:23;3.95;;;2.22;;
35418;SDS011;21525;41.240;16.500;2024-01-15T07:54:48;4.07;;;2.28;;
35418;SDS011;21525;41.240;16.500;2024-01-15T07:57:14;6.65;;;3.13;;
35418;SDS011;21525;41.240;16.500;2024-01-15T07:59:40;6.22;;;2.90;;
35418;SDS011;21525;41.240;16.500;2024-01-15T08:02:05;7.57;;;4.47;;
35418;SDS011;21525;41.240;16.500;2024-01-15T08:04:31;7.05;;;3.35;;
35418;SDS011;21525;41.240;16.500;2024-01-15T08:06:57;7.05;;;3.50;;
35418;SDS011;21525;41.240;16.500;2024-01-15T08:09:23;11.10;;;4.38;;
35418;SDS011;21525;41.240;16.500;2024-01-15T08:11:49;9.52;;;3.30;;
35418;SDS011;21525;41.240;16.500;2024-01-15T08:14:15;9.15;;;3.90;;
35418;SDS011;21525;41.240;16.500;2024-01-15T08:16:41;11.90;;;5.28;;
35418;SDS011;21525;41.240;16.500;2024-01-15T08:19:08;8.30;;;3.85;;
35418;SDS011;21525;41.240;16.500;2024-01-15T08:21:34;6.55;;;3.42;;
35418;SDS011;21525;41.240;16.500;2024-01-15T08:24:00;7.68;;;3.45;;
35418;SDS011;21525;41.240;16.500;2024-01-15T08:26:29;11.52;;;3.80;;
35418;SDS011;21525;41.240;16.500;2024-01-15T08:28:55;9.45;;;3.40;;
35418;SDS011;21525;41.240;16.500;2024-01-15T08:31:21;11.65;;;4.82;;
35418;SDS011;21525;41.240;16.500;2024-01-15T08:33:47;13.55;;;6.47;;
35418;SDS011;21525;41.240;16.500;2024-01-15T08:36:13;17.90;;;8.07;;
35418;SDS011;21525;41.240;16.500;2024-01-15T08:38:38;16.48;;;7.93;;
35418;SDS011;21525;41.240;16.500;2024-01-15T08:41:04;15.25;;;8.50;;
35418;SDS011;21525;41.240;16.500;2024-01-15T08:43:30;11.80;;;6.07;;
35418;SDS011;21525;41.240;16.500;2024-01-15T08:45:56;11.30;;;5.90;;
35418;SDS011;21525;41.240;16.500;2024-01-15T08:48:22;11.77;;;6.07;;
35418;SDS011;21525;41.240;16.500;2024-01-15T08:50:48;10.73;;;5.97;;
35418;SDS011;21525;41.240;16.500;2024-01-15T08:53:14;9.23;;;5.43;;
35418;SDS011;21525;41.240;16.500;2024-01-15T08:55:40;8.13;;;4.50;;
35418;SDS011;21525;41.240;16.500;2024-01-15T08:58:08;9.45;;;5.20;;
35418;SDS011;21525;41.240;16.500;2024-01-15T09:00:34;7.55;;;4.25;;
35418;SDS011;21525;41.240;16.500;2024-01-15T09:02:59;11.38;;;3.92;;
35418;SDS011;21525;41.240;16.500;2024-01-15T09:05:25;8.70;;;4.10;;
35418;SDS011;21525;41.240;16.500;2024-01-15T09:07:51;6.97;;;3.10;;
35418;SDS011;21525;41.240;16.500;2024-01-15T09:10:17;8.15;;;3.03;;
35418;SDS011;21525;41.240;16.500;2024-01-15T09:12:44;7.30;;;2.13;;
35418;SDS011;21525;41.240;16.500;2024-01-15T09:15:10;7.50;;;2.85;;
35418;SDS011;21525;41.240;16.500;2024-01-15T09:17:36;4.68;;;2.25;;
35418;SDS011;21525;41.240;16.500;2024-01-15T09:20:02;3.63;;;1.63;;
35418;SDS011;21525;41.240;16.500;2024-01-15T09:22:31;4.47;;;1.73;;
35418;SDS011;21525;41.240;16.500;2024-01-15T09:24:57;7.28;;;2.03;;
35418;SDS011;21525;41.240;16.500;2024-01-15T09:27:23;7.22;;;2.70;;
35418;SDS011;21525;41.240;16.500;2024-01-15T09:29:51;5.15;;;2.88;;
35418;SDS011;21525;41.240;16.500;2024-01-15T09:32:19;7.35;;;3.35;;
35418;SDS011;21525;41.240;16.500;2024-01-15T09:34:46;8.48;;;3.25;;
35418;SDS011;21525;41.240;16.500;2024-01-15T09:37:13;8.00;;;4.25;;
35418;SDS011;21525;41.240;16.500;2024-01-15T09:39:39;10.90;;;4.20;;
35418;SDS011;21525;41.240;16.500;2024-01-15T09:42:06;5.13;;;3.17;;
35418;SDS011;21525;41.240;16.500;2024-01-15T09:44:33;6.80;;;3.15;;
35418;SDS011;21525;41.240;16.500;2024-01-15T09:47:00;4.65;;;2.28;;
35418;SDS011;21525;41.240;16.500;2024-01-15T09:49:26;8.05;;;2.85;;
35418;SDS011;21525;41.240;16.500;2024-01-15T09:51:53;7.97;;;2.22;;
35418;SDS011;21525;41.240;16.500;2024-01-15T09:54:20;5.65;;;3.13;;
35418;SDS011;21525;41.240;16.500;2024-01-15T09:56:46;4.53;;;2.55;;
35418;SDS011;21525;41.240;16.500;2024-01-15T09:59:16;7.38;;;2.28;;
35418;SDS011;21525;41.240;16.500;2024-01-15T10:01:44;8.38;;;3.00;;
35418;SDS011;21525;41.240;16.500;2024-01-15T10:04:13;5.70;;;2.47;;
35418;SDS011;21525;41.240;16.500;2024-01-15T10:06:40;7.97;;;2.97;;
35418;SDS011;21525;41.240;16.500;2024-01-15T10:09:13;5.07;;;2.95;;
35418;SDS011;21525;41.240;16.500;2024-01-15T10:11:42;3.78;;;1.90;;
35418;SDS011;21525;41.240;16.500;2024-01-15T10:14:10;5.53;;;2.17;;
35418;SDS011;21525;41.240;16.500;2024-01-15T10:16:39;5.97;;;1.70;;
35418;SDS011;21525;41.240;16.500;2024-01-15T10:19:05;4.55;;;1.60;;
35418;SDS011;21525;41.240;16.500;2024-01-15T10:21:32;5.30;;;1.80;;
35418;SDS011;21525;41.240;16.500;2024-01-15T10:24:00;3.25;;;2.13;;
35418;SDS011;21525;41.240;16.500;2024-01-15T10:26:26;5.40;;;2.10;;
35418;SDS011;21525;41.240;16.500;2024-01-15T10:28:52;4.60;;;2.20;;
35418;SDS011;21525;41.240;16.500;2024-01-15T10:31:18;4.72;;;2.15;;
35418;SDS011;21525;41.240;16.500;2024-01-15T10:33:48;4.75;;;1.90;;
35418;SDS011;21525;41.240;16.500;2024-01-15T10:36:14;3.42;;;1.95;;
35418;SDS011;21525;41.240;16.500;2024-01-15T10:38:42;3.92;;;1.85;;
35418;SDS011;21525;41.240;16.500;2024-01-15T10:41:08;4.07;;;1.90;;
35418;SDS011;21525;41.240;16.500;2024-01-15T10:43:34;2.90;;;1.60;;
35418;SDS011;21525;41.240;16.500;2024-01-15T10:46:00;6.25;;;2.10;;
35418;SDS011;21525;41.240;16.500;2024-01-15T10:48:27;3.22;;;1.60;;
35418;SDS011;21525;41.240;16.500;2024-01-15T10:50:55;2.60;;;1.60;;
35418;SDS011;21525;41.240;16.500;2024-01-15T10:53:21;4.28;;;1.98;;
35418;SDS011;21525;41.240;16.500;2024-01-15T10:55:50;5.28;;;1.77;;
35418;SDS011;21525;41.240;16.500;2024-01-15T10:58:16;5.07;;;1.67;;
35418;SDS011;21525;41.240;16.500;2024-01-15T11:00:43;5.32;;;1.80;;
35418;SDS011;21525;41.240;16.500;2024-01-15T11:03:09;8.57;;;1.83;;
35418;SDS011;21525;41.240;16.500;2024-01-15T11:05:39;2.67;;;1.30;;
35418;SDS011;21525;41.240;16.500;2024-01-15T11:08:07;8.65;;;2.13;;
35418;SDS011;21525;41.240;16.500;2024-01-15T11:10:46;6.00;;;1.90;;
35418;SDS011;21525;41.240;16.500;2024-01-15T11:13:15;6.63;;;1.50;;
35418;SDS011;21525;41.240;16.500;2024-01-15T11:18:21;2.10;;;1.17;;
35418;SDS011;21525;41.240;16.500;2024-01-15T11:21:21;6.88;;;1.70;;
35418;SDS011;21525;41.240;16.500;2024-01-15T11:23:44;5.47;;;1.88;;
35418;SDS011;21525;41.240;16.500;2024-01-15T11:34:20;4.00;;;1.83;;
35418;SDS011;21525;41.240;16.500;2024-01-15T11:37:06;4.97;;;1.50;;
35418;SDS011;21525;41.240;16.500;2024-01-15T11:41:58;3.88;;;1.30;;
35418;SDS011;21525;41.240;16.500;2024-01-15T11:44:30;4.30;;;1.58;;
35418;SDS011;21525;41.240;16.500;2024-01-15T11:52:20;5.05;;;1.42;;
35418;SDS011;21525;41.240;16.500;2024-01-15T12:00:17;3.63;;;1.48;;
35418;SDS011;21525;41.240;16.500;2024-01-15T12:02:44;4.65;;;1.30;;
35418;SDS011;21525;41.240;16.500;2024-01-15T12:05:12;3.78;;;1.50;;
35418;SDS011;21525;41.240;16.500;2024-01-15T12:07:42;4.53;;;2.08;;
35418;SDS011;21525;41.240;16.500;2024-01-15T12:10:09;4.43;;;1.70;;
35418;SDS011;21525;41.240;16.500;2024-01-15T12:12:57;4.32;;;2.03;;
35418;SDS011;21525;41.240;16.500;2024-01-15T12:15:25;7.50;;;2.88;;
35418;SDS011;21525;41.240;16.500;2024-01-15T12:17:54;7.05;;;3.05;;
35418;SDS011;21525;41.240;16.500;2024-01-15T12:20:21;9.65;;;3.40;;
35418;SDS011;21525;41.240;16.500;2024-01-15T12:22:46;9.00;;;4.22;;
35418;SDS011;21525;41.240;16.500;2024-01-15T12:25:12;6.97;;;3.08;;
35418;SDS011;21525;41.240;16.500;2024-01-15T12:27:38;9.57;;;3.92;;
35418;SDS011;21525;41.240;16.500;2024-01-15T12:30:04;8.00;;;2.70;;
35418;SDS011;21525;41.240;16.500;2024-01-15T12:32:30;7.38;;;3.00;;
35418;SDS011;21525;41.240;16.500;2024-01-15T12:34:56;6.40;;;1.98;;
35418;SDS011;21525;41.240;16.500;2024-01-15T12:37:21;5.90;;;1.95;;
35418;SDS011;21525;41.240;16.500;2024-01-15T12:39:47;4.72;;;1.98;;
35418;SDS011;21525;41.240;16.500;2024-01-15T12:42:16;7.10;;;1.80;;
35418;SDS011;21525;41.240;16.500;2024-01-15T12:44:42;3.42;;;1.70;;
35418;SDS011;21525;41.240;16.500;2024-01-15T12:47:10;6.65;;;2.20;;
35418;SDS011;21525;41.240;16.500;2024-01-15T12:49:36;4.70;;;1.70;;
35418;SDS011;21525;41.240;16.500;2024-01-15T12:52:03;4.82;;;1.58;;
35418;SDS011;21525;41.240;16.500;2024-01-15T12:54:29;4.90;;;1.83;;
35418;SDS011;21525;41.240;16.500;2024-01-15T12:56:54;6.93;;;2.55;;
35418;SDS011;21525;41.240;16.500;2024-01-15T12:59:20;7.00;;;2.30;;
35418;SDS011;21525;41.240;16.500;2024-01-15T13:01:46;9.18;;;2.22;;
35418;SDS011;21525;41.240;16.500;2024-01-15T13:04:20;5.72;;;2.33;;
35418;SDS011;21525;41.240;16.500;2024-01-15T13:06:48;6.15;;;2.35;;
35418;SDS011;21525;41.240;16.500;2024-01-15T13:09:14;10.75;;;3.00;;
35418;SDS011;21525;41.240;16.500;2024-01-15T13:11:40;8.13;;;2.80;;
35418;SDS011;21525;41.240;16.500;2024-01-15T13:14:06;14.43;;;3.30;;
35418;SDS011;21525;41.240;16.500;2024-01-15T13:16:32;11.10;;;3.85;;
35418;SDS011;21525;41.240;16.500;2024-01-15T13:18:57;11.20;;;3.35;;
35418;SDS011;21525;41.240;16.500;2024-01-15T13:21:24;13.10;;;4.15;;
35418;SDS011;21525;41.240;16.500;2024-01-15T13:23:49;7.32;;;3.65;;
35418;SDS011;21525;41.240;16.500;2024-01-15T13:26:15;10.10;;;3.78;;
35418;SDS011;21525;41.240;16.500;2024-01-15T13:28:43;9.32;;;3.80;;
35418;SDS011;21525;41.240;16.500;2024-01-15T13:31:09;10.45;;;3.38;;
35418;SDS011;21525;41.240;16.500;2024-01-15T13:33:35;7.45;;;2.83;;
35418;SDS011;21525;41.240;16.500;2024-01-15T13:36:00;8.07;;;3.13;;
35418;SDS011;21525;41.240;16.500;2024-01-15T13:38:27;12.48;;;3.25;;
35418;SDS011;21525;41.240;16.500;2024-01-15T13:40:56;10.52;;;3.00;;
35418;SDS011;21525;41.240;16.500;2024-01-15T13:43:22;10.93;;;3.08;;
35418;SDS011;21525;41.240;16.500;2024-01-15T13:45:48;14.60;;;3.67;;
35418;SDS011;21525;41.240;16.500;2024-01-15T13:48:14;10.00;;;3.50;;
35418;SDS011;21525;41.240;16.500;2024-01-15T13:50:40;11.00;;;4.30;;
35418;SDS011;21525;41.240;16.500;2024-01-15T13:53:06;9.65;;;4.25;;
35418;SDS011;21525;41.240;16.500;2024-01-15T13:55:31;20.77;;;4.43;;
35418;SDS011;21525;41.240;16.500;2024-01-15T13:57:57;23.02;;;5.22;;
35418;SDS011;21525;41.240;16.500;2024-01-15T14:00:23;14.20;;;4.35;;
35418;SDS011;21525;41.240;16.500;2024-01-15T14:02:48;9.85;;;4.03;;
35418;SDS011;21525;41.240;16.500;2024-01-15T14:05:14;14.48;;;4.30;;
35418;SDS011;21525;41.240;16.500;2024-01-15T14:07:40;13.82;;;4.32;;
35418;SDS011;21525;41.240;16.500;2024-01-15T14:10:07;8.10;;;3.90;;
35418;SDS011;21525;41.240;16.500;2024-01-15T14:12:33;15.80;;;5.38;;
35418;SDS011;21525;41.240;16.500;2024-01-15T14:15:00;10.82;;;3.90;;
35418;SDS011;21525;41.240;16.500;2024-01-15T14:17:27;13.70;;;4.15;;
35418;SDS011;21525;41.240;16.500;2024-01-15T14:19:53;12.35;;;4.32;;
35418;SDS011;21525;41.240;16.500;2024-01-15T14:22:19;14.98;;;4.05;;
35418;SDS011;21525;41.240;16.500;2024-01-15T14:24:44;14.40;;;3.97;;
35418;SDS011;21525;41.240;16.500;2024-01-15T14:27:10;12.20;;;4.18;;
35418;SDS011;21525;41.240;16.500;2024-01-15T14:29:36;14.25;;;4.88;;
35418;SDS011;21525;41.240;16.500;2024-01-15T14:32:02;12.77;;;4.30;;
35418;SDS011;21525;41.240;16.500;2024-01-15T14:34:28;9.70;;;3.85;;
35418;SDS011;21525;41.240;16.500;2024-01-15T14:36:53;11.63;;;4.13;;
35418;SDS011;21525;41.240;16.500;2024-01-15T14:39:20;13.60;;;5.20;;
35418;SDS011;21525;41.240;16.500;2024-01-15T14:41:47;16.23;;;5.50;;
35418;SDS011;21525;41.240;16.500;2024-01-15T14:44:13;19.02;;;7.78;;
35418;SDS011;21525;41.240;16.500;2024-01-15T14:46:39;20.60;;;9.55;;
35418;SDS011;21525;41.240;16.500;2024-01-15T14:49:05;26.42;;;11.13;;
35418;SDS011;21525;41.240;16.500;2024-01-15T14:51:31;19.08;;;8.65;;
35418;SDS011;21525;41.240;16.500;2024-01-15T14:53:57;22.27;;;8.75;;
35418;SDS011;21525;41.240;16.500;2024-01-15T14:56:23;20.83;;;8.02;;